Accueil
METAR-TAF:

METAR-TAF

Aéroports :

Ann Arbor, Michigan, États-Unis

latitude: 42-13-26N, longitude: 083-44-24W, altitude: 255 m

Observation

Le bulletin a été fait il y a 32 minutes, à 17:53 UTC
Vent 6 kt de direction variable avec des rafales jusqu'à 14 kt
Température 22°C
Humidité 43%
Pression 1014 hPa
Visibilité: 16.1 km
Ciel clair

METAR: KARB 261753Z VRB06G14KT 10SM CLR 22/09 A2994 RMK AO2 SLP140 T02220089 10228 20061 58010

Heure: 14:25 (18:25 UTC)


TAF: absent

Observations et prévisions météorologiques de plus de 4000 aéroports (messages METAR et TAF).

Les stations disponibles sont représentées par des disques jaunes et rouges sur la carte.

Passer la souris dessus pour voir le nom de la station.

Cliquer dessus pour voir les observations et prévisions météorologiques.

Pour changer de carte: cliquez sur les boutons verts avec une croix noire pour zoomer, sur le bouton vert avec un tiret pour effectuer un zoom arrière, ou sur les flèches vertes pour les cartes adjacentes.


METAR-TAF: